Hoag Corners, New York
Current Conditions -  °F | °C
As of 9:34 AM on Friday 31 Oct 2014 (Local Time) from KPSF Reporting Station
Haze Haze  
Wind Chill: 32°   Ceiling: 200
Heat Index: 32°   Visibility: 4mi
Dew Point: 32°   Wind: 0mph
Humidity: 100%   Direction: NA
Pressure: 30.01"   Gusts: NA
Location:  42.5337°N, 73.5023°W
Report Text: KPSF 311334Z AUTO 00000KT 4SM BR BKN002 BKN039 00/00 A3001 RMK AO2 T00000000
Loading
Personal Weather Stations






























Interactive Weather Map
Tropical Storm Tracking
New forecast layout! Learn more

10-Day Weather Forecast

Advertisements
Track Severe Weather on mobile